Time;durP1;ratioP1;P1;durP2;ratioP2;P2;SDS_P1;SDS_P2;PMS_P1;PMS_P2;Temp;Humidity;BMP_temperature;BMP_pressure;BME280_temperature;BME280_humidity;BME280_pressure;Samples;Min_cycle;Max_cycle;Signal;HPM_P1;HPM_P2
2022/09/02 00:01:12;;;;;;;4.43;2.97;;;;;;;;;;5156052;27;20035;-59
2022/09/02 00:03:38;;;;;;;3.35;2.60;;;;;;;;;;5156985;27;20027;-59
2022/09/02 00:06:04;;;;;;;3.08;2.60;;;;;;;;;;5156086;27;20071;-59
2022/09/02 00:08:30;;;;;;;3.05;2.40;;;;;;;;;;5156052;27;20026;-58
2022/09/02 00:10:57;;;;;;;3.40;2.78;;;;;;;;;;5155738;27;20482;-59
2022/09/02 00:13:23;;;;;;;2.85;2.08;;;;;;;;;;5155511;27;20475;-59
2022/09/02 00:15:50;;;;;;;5.03;2.45;;;;;;;;;;5155991;27;20027;-58
2022/09/02 00:18:16;;;;;;;3.30;2.42;;;;;;;;;;5156201;27;20022;-59
2022/09/02 00:20:43;;;;;;;2.95;2.17;;;;;;;;;;5156047;27;20033;-59
2022/09/02 00:23:09;;;;;;;3.03;2.08;;;;;;;;;;5156410;27;20098;-58
2022/09/02 00:25:36;;;;;;;3.58;1.98;;;;;;;;;;5155757;27;20027;-58
2022/09/02 00:28:02;;;;;;;2.85;1.88;;;;;;;;;;5156100;27;20031;-58
2022/09/02 00:30:28;;;;;;;3.13;1.98;;;;;;;;;;5156011;27;20072;-58
2022/09/02 00:32:54;;;;;;;2.80;2.20;;;;;;;;;;5156017;27;20019;-59
2022/09/02 00:35:20;;;;;;;2.97;2.30;;;;;;;;;;5155690;27;20429;-58
2022/09/02 00:37:46;;;;;;;2.90;2.03;;;;;;;;;;5155949;27;20031;-58
2022/09/02 00:40:13;;;;;;;5.45;2.45;;;;;;;;;;5155848;27;20046;-59
2022/09/02 00:42:39;;;;;;;4.45;2.15;;;;;;;;;;5156207;27;20019;-59
2022/09/02 00:45:06;;;;;;;2.92;2.22;;;;;;;;;;5155794;27;20069;-58
2022/09/02 00:47:32;;;;;;;3.10;2.55;;;;;;;;;;5155556;27;20031;-58
2022/09/02 00:49:58;;;;;;;3.78;3.10;;;;;;;;;;5155566;27;20027;-59
2022/09/02 00:52:36;;;;;;;3.38;2.38;;;;;;;;;;5156282;27;20376;-58
2022/09/02 00:55:10;;;;;;;3.55;1.95;;;;;;;;;;5155403;27;20030;-58
2022/09/02 00:57:38;;;;;;;3.15;1.95;;;;;;;;;;5156097;27;20148;-59
2022/09/02 01:00:09;;;;;;;3.45;2.53;;;;;;;;;;5155443;27;20034;-58
2022/09/02 01:02:36;;;;;;;3.53;2.30;;;;;;;;;;5155355;27;20023;-58
2022/09/02 01:05:04;;;;;;;3.42;2.63;;;;;;;;;;5155380;27;20023;-58
2022/09/02 01:07:33;;;;;;;3.80;2.25;;;;;;;;;;5155374;27;20023;-58
2022/09/02 01:09:59;;;;;;;2.97;2.05;;;;;;;;;;5155306;27;20034;-58
2022/09/02 01:12:26;;;;;;;2.88;1.83;;;;;;;;;;5155337;27;20030;-58
2022/09/02 01:14:52;;;;;;;2.80;1.95;;;;;;;;;;5155553;27;20452;-58
2022/09/02 01:17:19;;;;;;;3.28;2.35;;;;;;;;;;5155287;27;20050;-59
2022/09/02 01:19:47;;;;;;;2.75;1.83;;;;;;;;;;5155741;27;20023;-59
2022/09/02 01:22:27;;;;;;;4.13;2.65;;;;;;;;;;5155416;27;20030;-58
2022/09/02 01:24:54;;;;;;;3.30;2.13;;;;;;;;;;5155245;27;20043;-58
2022/09/02 01:27:22;;;;;;;4.10;2.13;;;;;;;;;;5158755;27;20062;-58
2022/09/02 01:29:52;;;;;;;3.13;2.08;;;;;;;;;;5159733;27;20358;-59
2022/09/02 01:32:18;;;;;;;3.15;2.28;;;;;;;;;;5159353;27;20026;-58
2022/09/02 01:34:44;;;;;;;3.58;2.35;;;;;;;;;;5159095;27;20046;-58
2022/09/02 01:37:10;;;;;;;2.92;2.15;;;;;;;;;;5159834;27;20065;-58
2022/09/02 01:39:36;;;;;;;2.85;2.25;;;;;;;;;;5159790;27;20050;-58
2022/09/02 01:42:02;;;;;;;2.60;1.92;;;;;;;;;;5158879;27;20034;-58
2022/09/02 01:44:28;;;;;;;2.72;2.22;;;;;;;;;;5159778;27;20023;-58
2022/09/02 01:46:54;;;;;;;3.08;2.15;;;;;;;;;;5159289;27;20480;-58
2022/09/02 01:49:20;;;;;;;4.30;2.22;;;;;;;;;;5158823;27;20121;-58
2022/09/02 01:51:46;;;;;;;3.17;2.17;;;;;;;;;;5158848;27;20164;-58
2022/09/02 01:54:12;;;;;;;4.72;2.33;;;;;;;;;;5158746;27;20118;-58
2022/09/02 01:56:39;;;;;;;2.92;1.98;;;;;;;;;;5158344;27;20099;-58
2022/09/02 01:59:06;;;;;;;3.38;2.00;;;;;;;;;;5159167;27;20029;-58
2022/09/02 02:01:33;;;;;;;4.82;2.78;;;;;;;;;;5158435;27;20035;-58
2022/09/02 02:04:00;;;;;;;4.15;2.58;;;;;;;;;;5158529;27;20025;-58
2022/09/02 02:06:26;;;;;;;3.00;2.13;;;;;;;;;;5158423;27;20357;-58
2022/09/02 02:08:52;;;;;;;3.65;2.30;;;;;;;;;;5158411;27;20027;-59
2022/09/02 02:11:19;;;;;;;4.38;2.17;;;;;;;;;;5158691;27;20079;-58
2022/09/02 02:13:45;;;;;;;5.22;2.00;;;;;;;;;;5158943;27;20027;-58
2022/09/02 02:16:12;;;;;;;2.67;1.92;;;;;;;;;;5157711;27;20431;-58
2022/09/02 02:18:38;;;;;;;2.53;1.92;;;;;;;;;;5158790;27;20062;-58
2022/09/02 02:21:04;;;;;;;3.63;2.78;;;;;;;;;;5158358;27;20074;-58
2022/09/02 02:23:30;;;;;;;3.40;2.45;;;;;;;;;;5158504;27;20027;-59
2022/09/02 02:25:56;;;;;;;3.53;3.17;;;;;;;;;;5158073;27;20018;-58
2022/09/02 02:28:22;;;;;;;3.10;2.40;;;;;;;;;;5157756;27;20523;-58
2022/09/02 02:30:48;;;;;;;3.03;2.50;;;;;;;;;;5158736;27;20026;-59
2022/09/02 02:33:14;;;;;;;2.60;1.85;;;;;;;;;;5158514;27;20027;-58
2022/09/02 02:35:40;;;;;;;4.10;2.40;;;;;;;;;;5157876;27;20077;-58
2022/09/02 02:38:07;;;;;;;3.83;2.38;;;;;;;;;;5158019;27;20051;-58
2022/09/02 02:40:34;;;;;;;2.97;2.53;;;;;;;;;;5157676;27;20452;-58
2022/09/02 02:43:00;;;;;;;2.75;2.08;;;;;;;;;;5157852;27;20467;-58
2022/09/02 02:45:26;;;;;;;3.25;2.45;;;;;;;;;;5157920;27;20035;-58
2022/09/02 02:47:53;;;;;;;3.10;2.30;;;;;;;;;;5157675;27;20058;-58
2022/09/02 02:50:20;;;;;;;2.95;2.00;;;;;;;;;;5157571;27;20135;-58
2022/09/02 02:52:47;;;;;;;2.30;1.85;;;;;;;;;;5157049;27;20073;-58
2022/09/02 02:55:14;;;;;;;2.88;2.25;;;;;;;;;;5157531;27;20357;-58
2022/09/02 02:57:41;;;;;;;5.70;2.35;;;;;;;;;;5157488;27;20031;-58
2022/09/02 03:00:28;;;;;;;3.55;2.17;;;;;;;;;;5157925;27;20054;-58
2022/09/02 03:02:58;;;;;;;3.53;2.20;;;;;;;;;;5157652;27;20023;-58
2022/09/02 03:05:24;;;;;;;3.00;2.25;;;;;;;;;;5157637;27;20023;-58
2022/09/02 03:07:50;;;;;;;2.78;2.05;;;;;;;;;;5157731;27;20121;-59
2022/09/02 03:10:17;;;;;;;4.45;2.80;;;;;;;;;;5157168;27;20456;-59
2022/09/02 03:12:46;;;;;;;6.03;2.50;;;;;;;;;;5157105;27;20022;-58
2022/09/02 03:15:14;;;;;;;2.63;2.35;;;;;;;;;;5157650;27;20046;-58
2022/09/02 03:17:40;;;;;;;3.67;2.40;;;;;;;;;;5156983;27;20065;-58
2022/09/02 03:20:07;;;;;;;2.72;2.22;;;;;;;;;;5157033;27;20023;-58
2022/09/02 03:22:34;;;;;;;3.22;1.98;;;;;;;;;;5157383;27;20038;-58
2022/09/02 03:25:00;;;;;;;5.85;2.42;;;;;;;;;;5157726;27;20500;-58
2022/09/02 03:27:26;;;;;;;5.05;2.63;;;;;;;;;;5156888;27;20023;-58
2022/09/02 03:29:52;;;;;;;2.55;2.00;;;;;;;;;;5156861;27;20033;-58
2022/09/02 03:32:18;;;;;;;3.63;2.42;;;;;;;;;;5157080;27;20031;-58
2022/09/02 03:34:44;;;;;;;5.68;2.30;;;;;;;;;;5157405;27;20098;-58
2022/09/02 03:37:10;;;;;;;3.50;2.78;;;;;;;;;;5156438;27;20464;-58
2022/09/02 03:39:38;;;;;;;4.30;2.38;;;;;;;;;;5156691;27;20067;-58
2022/09/02 03:42:04;;;;;;;4.38;3.03;;;;;;;;;;5156426;27;20062;-58
2022/09/02 03:44:32;;;;;;;3.05;2.10;;;;;;;;;;5156912;27;20057;-58
2022/09/02 03:46:57;;;;;;;5.95;2.92;;;;;;;;;;5156344;27;20037;-58
2022/09/02 03:49:24;;;;;;;2.50;1.92;;;;;;;;;;5156013;27;20109;-58
2022/09/02 03:51:49;;;;;;;3.75;2.40;;;;;;;;;;5156284;27;20476;-58
2022/09/02 03:54:15;;;;;;;3.67;2.83;;;;;;;;;;5156425;27;20029;-58
2022/09/02 03:56:41;;;;;;;3.72;2.47;;;;;;;;;;5156654;27;20019;-58
2022/09/02 03:59:07;;;;;;;5.97;2.72;;;;;;;;;;5156311;27;20456;-58
2022/09/02 04:01:34;;;;;;;3.47;2.05;;;;;;;;;;5156217;27;20070;-58
2022/09/02 04:04:00;;;;;;;3.53;2.60;;;;;;;;;;5156567;27;20155;-58
2022/09/02 04:06:27;;;;;;;3.35;2.58;;;;;;;;;;5156160;27;20026;-58
2022/09/02 04:08:53;;;;;;;3.38;2.50;;;;;;;;;;5156158;27;20026;-58
2022/09/02 04:11:20;;;;;;;4.85;2.67;;;;;;;;;;5156914;27;20053;-58
2022/09/02 04:13:47;;;;;;;2.92;2.20;;;;;;;;;;5156353;27;20432;-58
2022/09/02 04:16:14;;;;;;;3.20;2.20;;;;;;;;;;5156545;27;20033;-58
2022/09/02 04:18:41;;;;;;;3.63;2.70;;;;;;;;;;5156009;27;20368;-58
2022/09/02 04:21:08;;;;;;;4.13;3.15;;;;;;;;;;5155868;27;20053;-58
2022/09/02 04:23:34;;;;;;;3.85;2.92;;;;;;;;;;5156792;27;20036;-58
2022/09/02 04:26:19;;;;;;;3.00;2.60;;;;;;;;;;5155523;27;20425;-58
2022/09/02 04:28:47;;;;;;;3.00;2.22;;;;;;;;;;5156126;27;20027;-58
2022/09/02 04:31:14;;;;;;;4.47;2.92;;;;;;;;;;5155721;27;20033;-58
2022/09/02 04:33:40;;;;;;;4.22;2.55;;;;;;;;;;5156056;27;20467;-58
2022/09/02 04:36:08;;;;;;;3.05;2.30;;;;;;;;;;5156038;27;20023;-58
2022/09/02 04:38:34;;;;;;;4.80;3.20;;;;;;;;;;5155999;27;20034;-58
2022/09/02 04:41:05;;;;;;;4.93;2.83;;;;;;;;;;5155924;27;20038;-58
2022/09/02 04:43:30;;;;;;;4.22;3.17;;;;;;;;;;5155753;27;20484;-58
2022/09/02 04:45:56;;;;;;;4.25;2.97;;;;;;;;;;5155928;27;20015;-58
2022/09/02 04:48:22;;;;;;;4.40;3.00;;;;;;;;;;5155589;27;20476;-58
2022/09/02 04:50:48;;;;;;;5.88;2.97;;;;;;;;;;5155093;27;20115;-58
2022/09/02 04:53:15;;;;;;;2.47;2.10;;;;;;;;;;5155845;27;20048;-58
2022/09/02 04:55:41;;;;;;;3.45;2.88;;;;;;;;;;5155516;27;20030;-58
2022/09/02 04:58:08;;;;;;;3.33;2.63;;;;;;;;;;5155416;27;20079;-58
2022/09/02 05:00:34;;;;;;;9.23;3.05;;;;;;;;;;5158161;27;20030;-58
2022/09/02 05:03:00;;;;;;;3.90;3.10;;;;;;;;;;5160422;27;20337;-58
2022/09/02 05:05:26;;;;;;;3.58;2.38;;;;;;;;;;5159758;27;20031;-58
2022/09/02 05:07:54;;;;;;;4.32;2.80;;;;;;;;;;5159643;27;20369;-58
2022/09/02 05:10:20;;;;;;;3.90;3.40;;;;;;;;;;5160432;27;20034;-58
2022/09/02 05:12:46;;;;;;;5.35;2.85;;;;;;;;;;5159856;27;20114;-58
2022/09/02 05:15:12;;;;;;;3.97;2.63;;;;;;;;;;5159487;27;20019;-58
2022/09/02 05:17:38;;;;;;;4.72;3.03;;;;;;;;;;5159205;27;20030;-59
2022/09/02 05:20:05;;;;;;;6.78;2.90;;;;;;;;;;5159429;27;20031;-59
2022/09/02 05:22:31;;;;;;;2.83;2.25;;;;;;;;;;5159242;27;20038;-59
2022/09/02 05:24:57;;;;;;;4.93;2.72;;;;;;;;;;5159658;27;20029;-58
2022/09/02 05:27:23;;;;;;;4.65;2.80;;;;;;;;;;5159207;27;20072;-58
2022/09/02 05:29:49;;;;;;;3.78;2.88;;;;;;;;;;5159243;27;20023;-58
2022/09/02 05:32:15;;;;;;;4.20;2.70;;;;;;;;;;5159122;27;20022;-58
2022/09/02 05:34:41;;;;;;;5.28;3.08;;;;;;;;;;5159397;27;20475;-58
2022/09/02 05:37:08;;;;;;;5.88;3.00;;;;;;;;;;5159084;27;20054;-58
2022/09/02 05:39:34;;;;;;;2.65;2.05;;;;;;;;;;5158968;27;20046;-58
2022/09/02 05:42:00;;;;;;;3.75;1.92;;;;;;;;;;5158900;27;20091;-59
2022/09/02 05:44:28;;;;;;;3.33;1.98;;;;;;;;;;5159468;27;20019;-59
2022/09/02 05:46:54;;;;;;;3.85;2.10;;;;;;;;;;5158741;27;20056;-59
2022/09/02 05:49:21;;;;;;;3.42;2.10;;;;;;;;;;5158863;27;20039;-59
2022/09/02 05:51:49;;;;;;;3.20;2.10;;;;;;;;;;5158389;27;20055;-59
2022/09/02 05:54:17;;;;;;;2.80;1.80;;;;;;;;;;5158726;27;20025;-59
2022/09/02 05:56:44;;;;;;;3.42;2.03;;;;;;;;;;5159547;27;20060;-59
2022/09/02 05:59:10;;;;;;;2.70;1.83;;;;;;;;;;5158613;27;20447;-59
2022/09/02 06:01:36;;;;;;;2.50;1.40;;;;;;;;;;5159026;27;20126;-59
2022/09/02 06:04:02;;;;;;;3.92;2.20;;;;;;;;;;5158841;27;20083;-58
2022/09/02 06:06:29;;;;;;;2.38;1.67;;;;;;;;;;5158523;27;20042;-59
2022/09/02 06:08:55;;;;;;;3.17;1.77;;;;;;;;;;5159014;27;20019;-59
2022/09/02 06:11:21;;;;;;;3.78;2.22;;;;;;;;;;5157548;27;20027;-59
2022/09/02 06:13:47;;;;;;;5.55;2.03;;;;;;;;;;5158602;27;20524;-59
2022/09/02 06:16:18;;;;;;;3.45;2.25;;;;;;;;;;5158782;27;20018;-59
2022/09/02 06:18:44;;;;;;;4.30;1.77;;;;;;;;;;5159057;27;20109;-58
2022/09/02 06:21:10;;;;;;;4.82;2.42;;;;;;;;;;5158581;27;20078;-58
2022/09/02 06:23:37;;;;;;;3.15;2.22;;;;;;;;;;5158247;27;20464;-59
2022/09/02 06:26:04;;;;;;;3.90;2.53;;;;;;;;;;5158109;27;20025;-59
2022/09/02 06:28:30;;;;;;;4.95;2.50;;;;;;;;;;5158386;27;20046;-59
2022/09/02 06:30:57;;;;;;;3.33;2.17;;;;;;;;;;5158013;27;20487;-59
2022/09/02 06:33:23;;;;;;;3.17;2.20;;;;;;;;;;5158009;27;20050;-59
2022/09/02 06:35:49;;;;;;;3.05;1.92;;;;;;;;;;5157983;27;20048;-59
2022/09/02 06:38:18;;;;;;;4.90;2.20;;;;;;;;;;5157938;27;20026;-59
2022/09/02 06:40:48;;;;;;;3.28;2.72;;;;;;;;;;5158557;27;20039;-58
2022/09/02 06:43:14;;;;;;;3.13;2.25;;;;;;;;;;5158389;27;20037;-58
2022/09/02 06:45:40;;;;;;;4.70;2.95;;;;;;;;;;5157601;27;20027;-58
2022/09/02 06:48:06;;;;;;;4.10;2.80;;;;;;;;;;5157745;27;20027;-59
2022/09/02 06:50:32;;;;;;;3.40;2.40;;;;;;;;;;5157613;27;20033;-59
2022/09/02 06:52:58;;;;;;;3.33;2.75;;;;;;;;;;5158230;27;20476;-58
2022/09/02 06:55:24;;;;;;;4.20;2.30;;;;;;;;;;5157588;27;20027;-58
2022/09/02 06:57:50;;;;;;;3.80;2.50;;;;;;;;;;5158090;27;20448;-58
2022/09/02 07:00:16;;;;;;;3.03;2.13;;;;;;;;;;5157755;27;20074;-58
2022/09/02 07:02:42;;;;;;;4.28;2.65;;;;;;;;;;5157408;27;20027;-58
2022/09/02 07:05:09;;;;;;;3.22;2.38;;;;;;;;;;5157731;27;20022;-59
2022/09/02 07:07:36;;;;;;;3.45;2.78;;;;;;;;;;5157294;27;20015;-58
2022/09/02 07:10:03;;;;;;;4.82;2.92;;;;;;;;;;5157813;27;20356;-58
2022/09/02 07:12:29;;;;;;;4.13;2.42;;;;;;;;;;5157201;27;20038;-58
2022/09/02 07:14:55;;;;;;;5.05;2.30;;;;;;;;;;5157486;27;20019;-58
2022/09/02 07:17:22;;;;;;;4.60;3.05;;;;;;;;;;5157706;27;20022;-58
2022/09/02 07:19:49;;;;;;;3.10;2.35;;;;;;;;;;5157072;27;20350;-58
2022/09/02 07:22:15;;;;;;;3.83;3.03;;;;;;;;;;5157167;27;20027;-58
2022/09/02 07:24:41;;;;;;;5.97;3.17;;;;;;;;;;5155924;27;20083;-59
2022/09/02 07:27:07;;;;;;;4.13;2.63;;;;;;;;;;5156763;27;20022;-58
2022/09/02 07:29:33;;;;;;;5.70;2.90;;;;;;;;;;5156586;27;20029;-58
2022/09/02 07:31:59;;;;;;;3.88;2.38;;;;;;;;;;5157149;27;20065;-58
2022/09/02 07:34:25;;;;;;;3.47;2.90;;;;;;;;;;5156842;27;20031;-58
2022/09/02 07:36:51;;;;;;;3.35;2.50;;;;;;;;;;5156697;27;20534;-58
2022/09/02 07:39:18;;;;;;;4.53;2.70;;;;;;;;;;5156735;27;20073;-58
2022/09/02 07:41:45;;;;;;;3.28;2.30;;;;;;;;;;5156485;27;20023;-58
2022/09/02 07:44:11;;;;;;;3.10;2.30;;;;;;;;;;5156600;27;20034;-58
2022/09/02 07:46:38;;;;;;;3.28;2.13;;;;;;;;;;5156478;27;20022;-58
2022/09/02 07:49:06;;;;;;;3.33;2.15;;;;;;;;;;5156922;27;20019;-58
2022/09/02 07:51:32;;;;;;;4.72;2.00;;;;;;;;;;5156131;27;20046;-58
2022/09/02 07:53:59;;;;;;;2.80;2.17;;;;;;;;;;5156306;27;20018;-58
2022/09/02 07:56:25;;;;;;;3.60;2.17;;;;;;;;;;5156327;27;20468;-58
2022/09/02 07:58:51;;;;;;;3.72;1.98;;;;;;;;;;5156331;27;20023;-58
2022/09/02 08:01:17;;;;;;;2.88;2.08;;;;;;;;;;5155388;27;20117;-58
2022/09/02 08:03:44;;;;;;;5.93;2.63;;;;;;;;;;5156885;27;20460;-58
2022/09/02 08:06:11;;;;;;;6.25;2.28;;;;;;;;;;5156754;27;20054;-58
2022/09/02 08:08:38;;;;;;;3.08;2.10;;;;;;;;;;5156095;27;20030;-58
2022/09/02 08:11:04;;;;;;;2.05;1.50;;;;;;;;;;5156544;27;20341;-58
2022/09/02 08:13:30;;;;;;;2.90;1.75;;;;;;;;;;5156667;27;20023;-58
2022/09/02 08:15:56;;;;;;;3.22;2.17;;;;;;;;;;5156067;27;20018;-58
2022/09/02 08:18:23;;;;;;;2.92;1.90;;;;;;;;;;5155945;27;20015;-58
2022/09/02 08:20:50;;;;;;;3.67;2.25;;;;;;;;;;5156069;27;20045;-58
2022/09/02 08:23:16;;;;;;;2.72;1.80;;;;;;;;;;5156268;27;20023;-58
2022/09/02 08:25:42;;;;;;;2.85;1.50;;;;;;;;;;5155818;27;20022;-58
2022/09/02 08:28:08;;;;;;;2.20;1.50;;;;;;;;;;5156124;27;20341;-58
2022/09/02 08:30:34;;;;;;;2.25;1.80;;;;;;;;;;5156080;27;20419;-59
2022/09/02 08:33:00;;;;;;;1.90;1.38;;;;;;;;;;5156126;27;20031;-58
2022/09/02 08:35:26;;;;;;;3.65;1.98;;;;;;;;;;5155384;27;20421;-58
2022/09/02 08:37:52;;;;;;;2.42;1.63;;;;;;;;;;5155756;27;20029;-58
2022/09/02 08:40:22;;;;;;;2.70;1.90;;;;;;;;;;5156492;27;20348;-59
2022/09/02 08:42:48;;;;;;;3.67;1.77;;;;;;;;;;5155551;27;20034;-59
2022/09/02 08:45:20;;;;;;;2.90;1.58;;;;;;;;;;5155581;27;20019;-58
2022/09/02 08:47:48;;;;;;;3.58;1.95;;;;;;;;;;5155873;27;20075;-58
2022/09/02 08:50:16;;;;;;;2.95;1.23;;;;;;;;;;5155641;27;20015;-58
2022/09/02 08:52:45;;;;;;;2.65;1.83;;;;;;;;;;5156252;27;20046;-59
2022/09/02 08:55:27;;;;;;;2.83;1.70;;;;;;;;;;5155475;27;20372;-58
2022/09/02 08:57:56;;;;;;;2.78;1.77;;;;;;;;;;5155509;27;20050;-58
2022/09/02 09:00:22;;;;;;;2.10;1.35;;;;;;;;;;5156019;27;20031;-58
2022/09/02 09:02:52;;;;;;;2.30;1.70;;;;;;;;;;5156071;27;20035;-58
2022/09/02 09:05:30;;;;;;;2.60;2.08;;;;;;;;;;5156039;27;20027;-58
2022/09/02 09:08:15;;;;;;;2.13;1.20;;;;;;;;;;5155640;27;20463;-58
2022/09/02 09:10:55;;;;;;;2.20;1.15;;;;;;;;;;5155314;27;20057;-58
2022/09/02 09:13:21;;;;;;;2.78;1.83;;;;;;;;;;5155978;27;20064;-58
2022/09/02 09:16:06;;;;;;;2.60;1.58;;;;;;;;;;5155582;27;20019;-58
2022/09/02 09:18:37;;;;;;;4.07;1.80;;;;;;;;;;5155573;27;20060;-58
2022/09/02 09:21:03;;;;;;;3.17;1.65;;;;;;;;;;5155818;27;20088;-58
2022/09/02 09:23:32;;;;;;;2.67;1.50;;;;;;;;;;5155556;27;20055;-58
2022/09/02 09:26:04;;;;;;;3.17;1.98;;;;;;;;;;5155483;27;20025;-58
2022/09/02 09:28:30;;;;;;;3.60;1.52;;;;;;;;;;5155515;27;20049;-58
2022/09/02 09:30:59;;;;;;;2.28;1.33;;;;;;;;;;5154888;27;20023;-58
2022/09/02 09:33:25;;;;;;;2.92;1.67;;;;;;;;;;5155777;27;20019;-59
2022/09/02 09:35:53;;;;;;;2.25;1.40;;;;;;;;;;5155408;27;20019;-58
2022/09/02 09:38:29;;;;;;;2.20;1.25;;;;;;;;;;5155408;27;20019;-58
2022/09/02 09:41:14;;;;;;;2.47;1.25;;;;;;;;;;5154942;27;20030;-58
2022/09/02 09:43:40;;;;;;;2.28;1.30;;;;;;;;;;5155042;27;20452;-58
2022/09/02 09:46:25;;;;;;;3.08;1.45;;;;;;;;;;5155127;27;20078;-58
2022/09/02 09:48:51;;;;;;;4.18;1.65;;;;;;;;;;5159467;27;20368;-59
2022/09/02 09:51:17;;;;;;;2.70;1.50;;;;;;;;;;5158780;27;20103;-59
2022/09/02 09:53:44;;;;;;;2.05;1.33;;;;;;;;;;5158760;27;20083;-58
2022/09/02 09:56:15;;;;;;;2.00;1.10;;;;;;;;;;5159504;27;20046;-59
2022/09/02 09:58:41;;;;;;;2.22;1.25;;;;;;;;;;5159226;27;20026;-58
2022/09/02 10:01:10;;;;;;;2.40;0.90;;;;;;;;;;5158282;27;20536;-58
2022/09/02 10:03:40;;;;;;;2.33;1.27;;;;;;;;;;5158974;27;20023;-59
2022/09/02 10:06:47;;;;;;;1.60;1.10;;;;;;;;;;5158619;27;20045;-59
2022/09/02 10:09:18;;;;;;;5.10;1.65;;;;;;;;;;5094524;28;20028;-59
2022/09/02 10:11:55;;;;;;;2.53;1.23;;;;;;;;;;5094703;28;20028;-58
2022/09/02 10:14:21;;;;;;;3.80;1.13;;;;;;;;;;5132682;27;20035;-58
2022/09/02 10:16:50;;;;;;;2.20;1.05;;;;;;;;;;5158669;27;20337;-59
2022/09/02 10:19:35;;;;;;;3.00;1.35;;;;;;;;;;5158221;27;20102;-59
2022/09/02 10:22:06;;;;;;;2.58;1.48;;;;;;;;;;5158465;27;20356;-59
2022/09/02 10:24:35;;;;;;;2.30;1.05;;;;;;;;;;5158540;27;20026;-58
2022/09/02 10:27:03;;;;;;;1.73;0.93;;;;;;;;;;5158452;27;20019;-59
2022/09/02 10:29:32;;;;;;;2.53;1.38;;;;;;;;;;5158436;27;20085;-59
2022/09/02 10:32:16;;;;;;;2.10;1.27;;;;;;;;;;5158033;27;20373;-59
2022/09/02 10:34:45;;;;;;;2.55;1.15;;;;;;;;;;5158059;27;20098;-59
2022/09/02 10:37:12;;;;;;;1.63;0.82;;;;;;;;;;5157984;27;20023;-58
2022/09/02 10:39:47;;;;;;;1.70;1.00;;;;;;;;;;5157864;27;20519;-59
2022/09/02 10:42:19;;;;;;;1.88;0.93;;;;;;;;;;5157699;27;20054;-59
2022/09/02 10:44:45;;;;;;;1.80;0.95;;;;;;;;;;5157897;27;20337;-58
2022/09/02 10:47:19;;;;;;;2.10;1.00;;;;;;;;;;5157629;27;20023;-59
2022/09/02 10:49:48;;;;;;;2.50;1.35;;;;;;;;;;5157821;27;20127;-59
2022/09/02 10:52:14;;;;;;;1.42;0.88;;;;;;;;;;5157744;27;20046;-58
2022/09/02 10:54:43;;;;;;;2.40;1.00;;;;;;;;;;5158070;27;20019;-59
2022/09/02 10:57:13;;;;;;;2.80;0.70;;;;;;;;;;5157119;27;20406;-59
2022/09/02 10:59:43;;;;;;;1.85;1.10;;;;;;;;;;5157433;27;20078;-59
2022/09/02 11:02:09;;;;;;;;;;;;;;;;;;5158149;27;20064;-59
2022/09/02 11:04:47;;;;;;;1.75;1.00;;;;;;;;;;5157223;27;19902;-59
2022/09/02 11:07:19;;;;;;;1.92;1.27;;;;;;;;;;5157572;27;20021;-59
2022/09/02 11:09:45;;;;;;;1.52;0.93;;;;;;;;;;5158065;27;20047;-59
2022/09/02 11:12:15;;;;;;;3.03;1.48;;;;;;;;;;5157972;27;20037;-59
2022/09/02 11:14:50;;;;;;;1.30;0.83;;;;;;;;;;5157764;27;20019;-59
2022/09/02 11:17:22;;;;;;;1.90;0.82;;;;;;;;;;5157069;27;20114;-59
2022/09/02 11:19:52;;;;;;;3.65;1.20;;;;;;;;;;5157439;27;20105;-59
2022/09/02 11:22:27;;;;;;;1.95;0.90;;;;;;;;;;5157068;27;20022;-59
2022/09/02 11:24:52;;;;;;;1.98;1.30;;;;;;;;;;5157415;27;20027;-59
2022/09/02 11:27:32;;;;;;;3.25;1.10;;;;;;;;;;5157183;27;20026;-59
2022/09/02 11:30:19;;;;;;;1.88;1.20;;;;;;;;;;5157734;27;20375;-59
2022/09/02 11:33:04;;;;;;;2.15;1.40;;;;;;;;;;5156781;27;20022;-58
2022/09/02 11:35:37;;;;;;;1.80;0.85;;;;;;;;;;5156852;27;20544;-59
2022/09/02 11:38:03;;;;;;;1.55;0.88;;;;;;;;;;5157611;27;20356;-59
2022/09/02 11:40:44;;;;;;;2.03;1.17;;;;;;;;;;5156696;27;20030;-59
2022/09/02 11:43:09;;;;;;;;;;;;;;;;;;5157433;27;20042;-59
2022/09/02 11:45:56;;;;;;;2.03;1.08;;;;;;;;;;5156868;27;20251;-58
2022/09/02 11:48:22;;;;;;;1.63;1.00;;;;;;;;;;5156581;27;20484;-58
2022/09/02 11:50:48;;;;;;;2.80;1.17;;;;;;;;;;5156338;27;20396;-59
2022/09/02 11:53:24;;;;;;;2.20;1.10;;;;;;;;;;5156487;27;20018;-59
2022/09/02 11:56:04;;;;;;;2.13;1.40;;;;;;;;;;5156339;27;20015;-59
2022/09/02 11:58:32;;;;;;;1.50;0.90;;;;;;;;;;5156405;27;20065;-59
2022/09/02 12:01:17;;;;;;;2.58;1.02;;;;;;;;;;5156277;27;20058;-59
2022/09/02 12:03:44;;;;;;;2.08;1.08;;;;;;;;;;5156321;27;20023;-59
2022/09/02 12:06:12;;;;;;;2.47;1.33;;;;;;;;;;5156736;27;20049;-59
2022/09/02 12:08:38;;;;;;;1.75;0.95;;;;;;;;;;5156563;27;20027;-59
2022/09/02 12:11:05;;;;;;;1.80;1.10;;;;;;;;;;5155603;27;20019;-59
2022/09/02 12:13:31;;;;;;;1.50;1.00;;;;;;;;;;5156404;27;20023;-59
2022/09/02 12:16:23;;;;;;;2.55;1.15;;;;;;;;;;5156107;27;20402;-59
2022/09/02 12:18:52;;;;;;;2.20;1.35;;;;;;;;;;5156281;27;20035;-59
2022/09/02 12:21:19;;;;;;;2.35;1.20;;;;;;;;;;5155705;27;20433;-59
2022/09/02 12:23:54;;;;;;;3.58;1.48;;;;;;;;;;5156430;27;20117;-58
2022/09/02 12:26:21;;;;;;;1.80;1.10;;;;;;;;;;5156167;27;20011;-59
2022/09/02 12:28:48;;;;;;;1.67;0.95;;;;;;;;;;5156038;27;20015;-59
2022/09/02 12:31:39;;;;;;;1.60;0.90;;;;;;;;;;5156246;27;20465;-59
2022/09/02 12:34:27;;;;;;;2.20;1.20;;;;;;;;;;5156305;27;20019;-59
2022/09/02 12:36:54;;;;;;;2.00;1.02;;;;;;;;;;5155301;27;20476;-59
2022/09/02 12:39:31;;;;;;;1.65;1.02;;;;;;;;;;5155996;27;20113;-59
2022/09/02 12:42:00;;;;;;;6.10;1.48;;;;;;;;;;5155947;27;20023;-59
2022/09/02 12:44:42;;;;;;;2.20;0.98;;;;;;;;;;5156024;27;20019;-59
2022/09/02 12:47:14;;;;;;;1.90;1.27;;;;;;;;;;5155599;27;20023;-59
2022/09/02 12:49:48;;;;;;;1.83;1.05;;;;;;;;;;5156117;27;20022;-59
2022/09/02 12:52:41;;;;;;;3.42;1.40;;;;;;;;;;5156134;27;20049;-59
2022/09/02 12:55:13;;;;;;;4.43;1.17;;;;;;;;;;5126390;27;20039;-59
2022/09/02 12:57:40;;;;;;;1.50;0.85;;;;;;;;;;5155512;27;20027;-59
2022/09/02 13:00:06;;;;;;;2.10;1.48;;;;;;;;;;5155416;27;20133;-59
2022/09/02 13:02:55;;;;;;;2.50;1.08;;;;;;;;;;5155310;27;20035;-59
2022/09/02 13:05:25;;;;;;;2.72;1.33;;;;;;;;;;5155763;27;20440;-59
2022/09/02 13:07:51;;;;;;;1.90;1.40;;;;;;;;;;5155637;27;20375;-59
2022/09/02 13:10:49;;;;;;;2.25;1.52;;;;;;;;;;5155375;27;20098;-59
2022/09/02 13:13:27;;;;;;;4.93;1.35;;;;;;;;;;5120567;27;20038;-59
2022/09/02 13:16:02;;;;;;;6.93;1.77;;;;;;;;;;5155329;27;20027;-59
2022/09/02 13:18:43;;;;;;;2.28;1.48;;;;;;;;;;5155231;27;20345;-59
2022/09/02 13:21:09;;;;;;;2.65;1.33;;;;;;;;;;5157234;27;20171;-59
2022/09/02 13:24:03;;;;;;;1.92;1.20;;;;;;;;;;5160018;27;20067;-59
2022/09/02 13:26:48;;;;;;;2.03;1.42;;;;;;;;;;5159403;27;20031;-59
2022/09/02 13:29:27;;;;;;;3.45;1.80;;;;;;;;;;5159358;27;20022;-59
2022/09/02 13:32:10;;;;;;;3.17;1.45;;;;;;;;;;5160093;27;20022;-59
2022/09/02 13:34:43;;;;;;;2.17;1.08;;;;;;;;;;5159490;27;20086;-59
2022/09/02 13:37:32;;;;;;;2.38;1.83;;;;;;;;;;5159116;27;20027;-59
2022/09/02 13:39:59;;;;;;;2.20;1.20;;;;;;;;;;5151061;27;20027;-59
2022/09/02 13:42:26;;;;;;;2.17;1.35;;;;;;;;;;5158627;27;20487;-59
2022/09/02 13:45:12;;;;;;;2.10;1.52;;;;;;;;;;5159407;27;20030;-59
2022/09/02 13:47:41;;;;;;;2.05;1.20;;;;;;;;;;5158889;27;20019;-59
2022/09/02 13:50:07;;;;;;;2.95;1.60;;;;;;;;;;5158808;27;20026;-59
2022/09/02 13:52:37;;;;;;;3.58;1.80;;;;;;;;;;5159416;27;20115;-59
2022/09/02 13:55:03;;;;;;;2.95;1.63;;;;;;;;;;5159268;27;20365;-59
2022/09/02 13:57:30;;;;;;;2.88;1.58;;;;;;;;;;5158721;27;20030;-59
2022/09/02 13:59:57;;;;;;;2.65;1.75;;;;;;;;;;5158635;27;20014;-59
2022/09/02 14:02:27;;;;;;;3.38;1.23;;;;;;;;;;5159286;27;20031;-59
2022/09/02 14:04:55;;;;;;;2.80;1.40;;;;;;;;;;5158539;27;20019;-59
2022/09/02 14:07:33;;;;;;;1.98;1.30;;;;;;;;;;5158307;27;20060;-59
2022/09/02 14:10:01;;;;;;;5.70;1.75;;;;;;;;;;5158610;27;20027;-59
2022/09/02 14:12:29;;;;;;;2.13;1.40;;;;;;;;;;5158620;27;20015;-59
2022/09/02 14:14:55;;;;;;;3.63;2.17;;;;;;;;;;5159132;27;20019;-59
2022/09/02 14:17:25;;;;;;;2.65;1.42;;;;;;;;;;5158205;27;20161;-59
2022/09/02 14:20:07;;;;;;;2.97;1.20;;;;;;;;;;5157967;27;20468;-59
2022/09/02 14:22:34;;;;;;;2.38;1.42;;;;;;;;;;5158142;27;20045;-59
2022/09/02 14:25:06;;;;;;;2.65;1.35;;;;;;;;;;5158186;27;20071;-58
2022/09/02 14:27:32;;;;;;;1.83;1.20;;;;;;;;;;5158158;27;20045;-59
2022/09/02 14:29:58;;;;;;;2.85;1.40;;;;;;;;;;5158346;27;20102;-59
2022/09/02 14:32:28;;;;;;;2.50;1.17;;;;;;;;;;5157621;27;20031;-59
2022/09/02 14:35:19;;;;;;;2.58;1.50;;;;;;;;;;5158836;27;20026;-59
2022/09/02 14:37:54;;;;;;;2.67;1.20;;;;;;;;;;5158256;27;20475;-59
2022/09/02 14:40:37;;;;;;;1.88;1.20;;;;;;;;;;5158350;27;20019;-59
2022/09/02 14:43:03;;;;;;;2.25;1.00;;;;;;;;;;5157830;27;20035;-59
2022/09/02 14:45:33;;;;;;;3.00;1.48;;;;;;;;;;5157643;27;20046;-59
2022/09/02 14:48:09;;;;;;;2.28;1.08;;;;;;;;;;5157759;27;20476;-59
2022/09/02 14:50:37;;;;;;;5.50;1.50;;;;;;;;;;5157396;27;20023;-59
2022/09/02 14:53:06;;;;;;;1.67;0.95;;;;;;;;;;5157640;27;20070;-59
2022/09/02 14:55:38;;;;;;;3.00;1.83;;;;;;;;;;5157510;27;20030;-59